Time;durP1;ratioP1;P1;durP2;ratioP2;P2;SDS_P1;SDS_P2;PMS_P1;PMS_P2;Temp;Humidity;BMP_temperature;BMP_pressure;BME280_temperature;BME280_humidity;BME280_pressure;Samples;Min_cycle;Max_cycle;Signal;HPM_P1;HPM_P2
2024/01/23 00:01:04;;;;;;;14.15;3.88;;;11.70;69.70;;;;;;5047250;28;20214;-47
2024/01/23 00:03:33;;;;;;;14.15;4.45;;;11.80;70.40;;;;;;5051481;28;20132;-50
2024/01/23 00:05:59;;;;;;;12.95;3.95;;;11.70;69.60;;;;;;5049622;28;20494;-49
2024/01/23 00:08:29;;;;;;;15.73;4.82;;;11.70;69.60;;;;;;5052160;28;20122;-47
2024/01/23 00:10:58;;;;;;;10.70;3.80;;;11.70;69.30;;;;;;5047543;28;20558;-50
2024/01/23 00:13:32;;;;;;;15.95;4.85;;;11.70;69.30;;;;;;5051899;28;20114;-48
2024/01/23 00:15:58;;;;;;;16.00;4.40;;;11.70;69.00;;;;;;5051194;28;20044;-50
2024/01/23 00:18:25;;;;;;;15.52;4.13;;;11.70;69.00;;;;;;5055327;28;20045;-48
2024/01/23 00:20:54;;;;;;;13.38;4.13;;;11.70;69.00;;;;;;5045507;28;20069;-50
2024/01/23 00:23:21;;;;;;;17.13;4.50;;;11.70;69.00;;;;;;5051582;28;20056;-48
2024/01/23 00:25:51;;;;;;;13.05;4.07;;;11.70;69.00;;;;;;5051019;28;20049;-49
2024/01/23 00:28:17;;;;;;;16.67;4.30;;;11.70;68.80;;;;;;5049802;28;20550;-46
2024/01/23 00:30:45;;;;;;;18.90;4.35;;;11.70;68.50;;;;;;5048037;28;20068;-50
2024/01/23 00:33:14;;;;;;;16.65;4.53;;;11.70;68.60;;;;;;5044895;28;20411;-46
2024/01/23 00:35:41;;;;;;;14.25;4.55;;;11.70;68.60;;;;;;5049258;28;20120;-49
2024/01/23 00:38:08;;;;;;;13.40;4.07;;;11.70;68.60;;;;;;5050947;28;20049;-48
2024/01/23 00:40:34;;;;;;;9.48;3.67;;;11.70;68.60;;;;;;5048664;28;20045;-46
2024/01/23 00:43:01;;;;;;;12.93;3.85;;;11.70;68.70;;;;;;5050609;28;20116;-51
2024/01/23 00:45:31;;;;;;;17.10;4.82;;;11.70;68.50;;;;;;5049717;28;20052;-50
2024/01/23 00:47:59;;;;;;;11.32;3.83;;;11.70;68.40;;;;;;5049776;28;20045;-47
2024/01/23 00:50:26;;;;;;;17.92;4.22;;;11.60;68.30;;;;;;5047550;28;20045;-51
2024/01/23 00:52:53;;;;;;;10.80;4.07;;;11.60;68.30;;;;;;5050599;28;20044;-47
2024/01/23 00:55:24;;;;;;;17.88;4.60;;;11.60;68.20;;;;;;5051003;28;20087;-51
2024/01/23 00:57:51;;;;;;;16.00;4.03;;;11.60;68.00;;;;;;5050296;28;20099;-46
2024/01/23 01:00:19;;;;;;;15.50;4.63;;;11.60;68.10;;;;;;5062047;28;20141;-49
2024/01/23 01:02:45;;;;;;;16.25;4.05;;;11.60;68.10;;;;;;5044217;28;20041;-49
2024/01/23 01:05:12;;;;;;;10.95;3.38;;;11.60;68.00;;;;;;5044031;28;20504;-49
2024/01/23 01:07:45;;;;;;;20.67;4.65;;;11.60;68.00;;;;;;5050480;28;20091;-49
2024/01/23 01:10:12;;;;;;;12.82;3.88;;;11.70;67.80;;;;;;5046553;28;20083;-47
2024/01/23 01:12:40;;;;;;;15.20;3.97;;;11.60;67.80;;;;;;5049657;28;20187;-48
2024/01/23 01:15:07;;;;;;;11.93;4.28;;;11.60;68.50;;;;;;5050737;28;20485;-50
2024/01/23 01:17:36;;;;;;;11.50;2.92;;;11.60;67.70;;;;;;5050345;28;20094;-51
2024/01/23 01:20:03;;;;;;;12.35;3.80;;;11.60;67.70;;;;;;5048110;28;20040;-50
2024/01/23 01:22:31;;;;;;;16.83;3.58;;;11.60;67.60;;;;;;5050040;28;20049;-49
2024/01/23 01:24:58;;;;;;;13.70;4.18;;;11.60;67.40;;;;;;5049306;28;20237;-51
2024/01/23 01:27:27;;;;;;;11.10;3.30;;;11.60;67.30;;;;;;5047773;28;20464;-48
2024/01/23 01:29:55;;;;;;;8.23;3.80;;;11.60;67.50;;;;;;5050281;28;20064;-49
2024/01/23 01:32:22;;;;;;;10.95;3.35;;;11.60;67.40;;;;;;5044869;28;20110;-49
2024/01/23 01:34:51;;;;;;;11.00;3.97;;;11.60;67.30;;;;;;5048751;28;20573;-50
2024/01/23 01:37:20;;;;;;;11.13;3.80;;;11.60;67.20;;;;;;5049719;28;20036;-48
2024/01/23 01:39:47;;;;;;;10.82;3.83;;;11.60;67.40;;;;;;5047961;28;20116;-48
2024/01/23 01:42:13;;;;;;;8.90;3.30;;;11.50;67.20;;;;;;5065041;28;20060;-47
2024/01/23 01:44:43;;;;;;;10.90;4.00;;;11.60;67.20;;;;;;5050287;28;20044;-48
2024/01/23 01:47:12;;;;;;;9.23;2.97;;;11.50;67.00;;;;;;5047591;28;20110;-49
2024/01/23 01:49:47;;;;;;;11.40;3.83;;;11.50;67.10;;;;;;5045556;28;20040;-48
2024/01/23 01:52:18;;;;;;;13.90;4.32;;;11.50;66.90;;;;;;5042127;28;20055;-50
2024/01/23 01:54:46;;;;;;;13.02;4.10;;;11.50;66.90;;;;;;5049609;28;20040;-51
2024/01/23 01:57:14;;;;;;;10.32;3.72;;;11.50;66.50;;;;;;5037790;28;20098;-49
2024/01/23 01:59:41;;;;;;;12.88;3.50;;;11.50;66.60;;;;;;5049844;28;20037;-49
2024/01/23 02:02:07;;;;;;;10.52;3.20;;;11.50;66.40;;;;;;5042781;28;20044;-47
2024/01/23 02:04:34;;;;;;;13.68;3.80;;;11.40;66.30;;;;;;5049747;28;20505;-48
2024/01/23 02:07:01;;;;;;;12.27;3.60;;;11.50;66.40;;;;;;5049435;28;20049;-49
2024/01/23 02:09:30;;;;;;;13.10;3.38;;;11.40;66.30;;;;;;5049737;28;20118;-51
2024/01/23 02:12:00;;;;;;;12.90;3.88;;;11.40;66.30;;;;;;5043648;28;20036;-48
2024/01/23 02:14:30;;;;;;;10.70;3.25;;;11.40;66.20;;;;;;5049905;28;20033;-47
2024/01/23 02:16:57;;;;;;;13.57;3.50;;;11.40;66.20;;;;;;5048767;28;20064;-49
2024/01/23 02:19:28;;;;;;;9.18;3.08;;;11.30;66.00;;;;;;5047847;28;20399;-47
2024/01/23 02:21:54;;;;;;;11.02;2.97;;;11.30;66.00;;;;;;5041095;28;20611;-47
2024/01/23 02:24:21;;;;;;;12.38;2.90;;;11.30;66.30;;;;;;5048404;28;20120;-47
2024/01/23 02:26:48;;;;;;;7.70;2.92;;;11.20;66.20;;;;;;5052060;28;20207;-49
2024/01/23 02:29:16;;;;;;;10.20;3.78;;;11.20;66.30;;;;;;5055786;28;20123;-49
2024/01/23 02:31:42;;;;;;;14.25;3.58;;;11.10;66.30;;;;;;5050497;28;20050;-48
2024/01/23 02:34:09;;;;;;;9.77;2.92;;;11.10;66.30;;;;;;5055608;28;20051;-50
2024/01/23 02:36:41;;;;;;;12.00;3.22;;;11.00;66.40;;;;;;5049678;28;20399;-47
2024/01/23 02:39:08;;;;;;;9.73;2.50;;;11.00;66.40;;;;;;5046529;28;20043;-50
2024/01/23 02:41:34;;;;;;;11.23;2.85;;;10.90;66.40;;;;;;5050996;28;20503;-47
2024/01/23 02:44:01;;;;;;;10.63;2.97;;;10.90;66.60;;;;;;5048369;28;20091;-46
2024/01/23 02:46:30;;;;;;;14.43;3.72;;;10.90;66.70;;;;;;5055944;28;20040;-48
2024/01/23 02:48:57;;;;;;;10.82;3.13;;;10.80;66.90;;;;;;5054123;28;20040;-47
2024/01/23 02:51:26;;;;;;;11.55;3.45;;;10.80;67.00;;;;;;5055337;28;20041;-51
2024/01/23 02:53:53;;;;;;;14.10;2.95;;;10.80;67.20;;;;;;5055587;28;20494;-48
2024/01/23 02:56:20;;;;;;;10.07;2.95;;;10.70;67.10;;;;;;5053992;28;20053;-49
2024/01/23 02:58:46;;;;;;;12.60;3.35;;;10.80;67.20;;;;;;5051658;28;20567;-51
2024/01/23 03:01:15;;;;;;;7.55;2.72;;;10.80;67.10;;;;;;5052789;28;20047;-48
2024/01/23 03:03:44;;;;;;;7.25;2.95;;;10.70;67.10;;;;;;5050791;28;20135;-46
2024/01/23 03:06:16;;;;;;;11.18;3.40;;;10.70;67.00;;;;;;5047318;28;20048;-46
2024/01/23 03:08:43;;;;;;;8.45;2.72;;;10.60;66.90;;;;;;5049151;28;20578;-50
2024/01/23 03:11:10;;;;;;;13.80;3.70;;;10.60;67.00;;;;;;5049821;28;20072;-47
2024/01/23 03:13:41;;;;;;;8.60;3.75;;;10.60;67.10;;;;;;5049505;28;20466;-49
2024/01/23 03:16:08;;;;;;;15.75;4.63;;;10.50;67.10;;;;;;5047539;28;20033;-51
2024/01/23 03:18:35;;;;;;;12.88;3.80;;;10.50;67.20;;;;;;5045327;28;20033;-50
2024/01/23 03:21:05;;;;;;;10.48;3.63;;;10.40;67.20;;;;;;5047719;28;20061;-48
2024/01/23 03:23:31;;;;;;;13.35;3.65;;;10.40;67.30;;;;;;5055834;28;20044;-50
2024/01/23 03:25:58;;;;;;;14.15;4.03;;;10.40;67.40;;;;;;5055286;28;20107;-50
2024/01/23 03:28:29;;;;;;;8.15;3.45;;;10.30;67.50;;;;;;5053343;28;20095;-46
2024/01/23 03:30:56;;;;;;;10.57;2.92;;;10.30;67.60;;;;;;5052775;28;20175;-48
2024/01/23 03:33:22;;;;;;;7.47;3.47;;;10.20;67.70;;;;;;5054177;28;20590;-48
2024/01/23 03:35:49;;;;;;;10.40;3.95;;;10.20;67.80;;;;;;5044529;28;20479;-48
2024/01/23 03:38:22;;;;;;;10.90;3.65;;;10.20;67.90;;;;;;5050764;28;20491;-50
2024/01/23 03:40:48;;;;;;;9.27;3.35;;;10.10;67.90;;;;;;5050279;28;20453;-49
2024/01/23 03:43:17;;;;;;;13.70;4.10;;;10.10;68.00;;;;;;5050618;28;20690;-48
2024/01/23 03:45:44;;;;;;;10.25;3.83;;;10.10;68.20;;;;;;5052071;28;20037;-50
2024/01/23 03:48:11;;;;;;;15.43;3.67;;;10.00;68.20;;;;;;5048812;28;20052;-50
2024/01/23 03:50:38;;;;;;;16.17;3.45;;;10.00;68.30;;;;;;5051934;28;20047;-48
2024/01/23 03:53:05;;;;;;;10.25;3.28;;;10.00;68.40;;;;;;5044970;28;20080;-49
2024/01/23 03:55:32;;;;;;;11.30;3.53;;;10.00;68.40;;;;;;5043397;28;20072;-49
2024/01/23 03:57:58;;;;;;;7.00;3.53;;;10.00;68.50;;;;;;5051176;28;20094;-51
2024/01/23 04:00:28;;;;;;;9.18;3.28;;;9.90;68.50;;;;;;5050310;28;20044;-50
2024/01/23 04:02:55;;;;;;;14.15;3.55;;;9.90;68.70;;;;;;5049720;28;20054;-46
2024/01/23 04:05:23;;;;;;;9.95;3.38;;;9.90;68.80;;;;;;5045523;28;20087;-50
2024/01/23 04:07:51;;;;;;;12.05;3.83;;;9.90;68.90;;;;;;5051554;28;20037;-50
2024/01/23 04:10:19;;;;;;;14.48;3.28;;;9.90;68.90;;;;;;5049519;28;20072;-48
2024/01/23 04:12:47;;;;;;;12.50;4.45;;;9.90;68.90;;;;;;5051433;28;20507;-47
2024/01/23 04:15:14;;;;;;;15.95;4.25;;;9.90;69.00;;;;;;5050259;28;20119;-47
2024/01/23 04:17:42;;;;;;;13.50;3.70;;;9.80;68.90;;;;;;5063816;28;20583;-50
2024/01/23 04:20:10;;;;;;;17.15;4.43;;;9.80;68.90;;;;;;5048187;28;20091;-51
2024/01/23 04:22:37;;;;;;;18.63;4.43;;;9.80;68.90;;;;;;5050836;28;20045;-50
2024/01/23 04:25:12;;;;;;;10.63;3.60;;;9.80;68.90;;;;;;5051792;28;20114;-48
2024/01/23 04:27:39;;;;;;;8.23;3.50;;;9.80;68.90;;;;;;5049028;28;20451;-47
2024/01/23 04:30:12;;;;;;;10.68;2.95;;;9.80;69.00;;;;;;5049266;28;20032;-48
2024/01/23 04:32:41;;;;;;;15.50;4.95;;;9.80;68.90;;;;;;5048020;28;20044;-48
2024/01/23 04:35:11;;;;;;;14.27;4.40;;;9.70;69.00;;;;;;5045083;28;20094;-51
2024/01/23 04:37:42;;;;;;;13.95;4.22;;;9.70;69.10;;;;;;5045824;28;20042;-51
2024/01/23 04:40:10;;;;;;;15.95;4.25;;;9.70;69.20;;;;;;5047937;28;20033;-48
2024/01/23 04:42:37;;;;;;;11.80;3.30;;;9.70;69.20;;;;;;5050726;28;20106;-51
2024/01/23 04:45:04;;;;;;;14.43;3.58;;;9.70;69.30;;;;;;5050691;28;20037;-48
2024/01/23 04:47:31;;;;;;;11.88;3.75;;;9.70;69.30;;;;;;5047900;28;20060;-48
2024/01/23 04:49:58;;;;;;;11.60;3.42;;;9.60;69.20;;;;;;5043160;28;20037;-48
2024/01/23 04:52:25;;;;;;;12.13;3.22;;;9.60;69.30;;;;;;5047322;28;20052;-51
2024/01/23 04:54:51;;;;;;;10.65;3.47;;;9.60;69.30;;;;;;5048396;28;20047;-47
2024/01/23 04:57:21;;;;;;;13.00;3.83;;;9.60;69.30;;;;;;5048810;28;20053;-49
2024/01/23 04:59:49;;;;;;;14.52;4.03;;;9.60;69.30;;;;;;5044509;28;20033;-47
2024/01/23 05:02:22;;;;;;;11.70;3.92;;;9.60;69.40;;;;;;5046028;28;20388;-51
2024/01/23 05:04:51;;;;;;;10.23;3.80;;;9.50;69.30;;;;;;5050734;28;20048;-51
2024/01/23 05:07:20;;;;;;;14.57;4.00;;;9.50;69.30;;;;;;5044427;28;20051;-48
2024/01/23 05:09:47;;;;;;;13.27;3.88;;;9.50;69.40;;;;;;5045351;28;20067;-49
2024/01/23 05:12:16;;;;;;;12.63;4.15;;;9.50;69.40;;;;;;5048309;28;20059;-47
2024/01/23 05:14:45;;;;;;;13.13;3.37;;;9.50;69.40;;;;;;5050779;28;20047;-51
2024/01/23 05:17:12;;;;;;;13.95;3.45;;;9.40;69.40;;;;;;5047931;28;20369;-47
2024/01/23 05:19:41;;;;;;;7.32;3.75;;;9.40;69.40;;;;;;5046674;28;20095;-48
2024/01/23 05:22:08;;;;;;;16.45;4.43;;;9.40;69.40;;;;;;5043171;28;20033;-47
2024/01/23 05:24:35;;;;;;;7.65;3.28;;;9.40;70.00;;;;;;5043967;28;20554;-49
2024/01/23 05:27:01;;;;;;;11.25;3.35;;;9.40;69.40;;;;;;5049804;28;20413;-48
2024/01/23 05:29:28;;;;;;;12.55;3.20;;;9.40;69.50;;;;;;5050005;28;20049;-48
2024/01/23 05:31:55;;;;;;;10.32;3.22;;;9.30;69.40;;;;;;5047512;28;20045;-47
2024/01/23 05:34:21;;;;;;;14.55;3.05;;;9.30;69.50;;;;;;5047888;28;20116;-47
2024/01/23 05:36:51;;;;;;;13.68;3.92;;;9.30;69.50;;;;;;5046769;28;20033;-51
2024/01/23 05:39:17;;;;;;;11.38;3.65;;;9.30;69.50;;;;;;5045513;28;20044;-51
2024/01/23 05:41:44;;;;;;;10.88;3.03;;;9.30;69.50;;;;;;5048121;28;20128;-51
2024/01/23 05:44:11;;;;;;;13.30;3.85;;;9.20;69.50;;;;;;5048009;28;20043;-52
2024/01/23 05:46:41;;;;;;;12.05;3.80;;;9.20;69.50;;;;;;5048561;28;20064;-52
2024/01/23 05:49:07;;;;;;;11.07;3.25;;;9.20;69.60;;;;;;5046278;28;20072;-51
2024/01/23 05:51:35;;;;;;;18.10;3.95;;;9.20;69.70;;;;;;5044801;28;20040;-49
2024/01/23 05:54:06;;;;;;;10.95;3.15;;;9.10;69.60;;;;;;5049191;28;20045;-49
2024/01/23 05:56:33;;;;;;;12.13;3.13;;;9.10;69.70;;;;;;5047815;28;20040;-49
2024/01/23 05:59:00;;;;;;;12.63;3.53;;;9.10;69.80;;;;;;5049818;28;20065;-49
2024/01/23 06:01:31;;;;;;;9.93;3.35;;;9.10;69.80;;;;;;5048276;28;20049;-51
2024/01/23 06:04:11;;;;;;;6.22;2.88;;;9.10;69.80;;;;;;5067732;28;20446;-51
2024/01/23 06:06:42;;;;;;;11.50;3.38;;;9.00;69.70;;;;;;5048278;28;20052;-51
2024/01/23 06:09:12;;;;;;;11.20;3.25;;;9.10;69.90;;;;;;5040157;28;20051;-49
2024/01/23 06:11:39;;;;;;;10.80;3.72;;;9.00;69.90;;;;;;5045181;28;20048;-51
2024/01/23 06:14:07;;;;;;;12.45;3.53;;;9.00;69.90;;;;;;5047636;28;20048;-49
2024/01/23 06:16:42;;;;;;;10.27;3.30;;;9.00;69.90;;;;;;5045994;28;20039;-51
2024/01/23 06:19:09;;;;;;;13.18;3.00;;;9.00;70.00;;;;;;5048030;28;20517;-47
2024/01/23 06:21:38;;;;;;;12.98;3.42;;;8.90;70.00;;;;;;5039433;28;20041;-49
2024/01/23 06:24:15;;;;;;;8.43;2.90;;;8.90;70.00;;;;;;5044382;28;20052;-51
2024/01/23 06:26:44;;;;;;;13.25;4.15;;;9.20;70.20;;;;;;5047529;28;20090;-46
2024/01/23 06:29:11;;;;;;;15.48;4.05;;;8.90;70.10;;;;;;5046938;28;20049;-50
2024/01/23 06:31:41;;;;;;;14.70;3.33;;;8.90;70.20;;;;;;5043116;28;20045;-46
2024/01/23 06:34:10;;;;;;;8.48;2.92;;;8.90;70.20;;;;;;5047607;28;20051;-50
2024/01/23 06:36:39;;;;;;;9.23;3.03;;;8.80;70.20;;;;;;5046993;28;20558;-51
2024/01/23 06:39:08;;;;;;;8.00;3.50;;;8.80;70.30;;;;;;5047559;28;20049;-50
2024/01/23 06:41:38;;;;;;;10.15;3.28;;;8.80;70.30;;;;;;5042174;28;20048;-52
2024/01/23 06:44:04;;;;;;;14.02;3.63;;;8.80;70.40;;;;;;5047164;28;20041;-52
2024/01/23 06:46:40;;;;;;;10.10;3.33;;;8.80;70.50;;;;;;5042662;28;20048;-52
2024/01/23 06:49:10;;;;;;;14.05;3.65;;;8.70;70.50;;;;;;5042869;28;20049;-52
2024/01/23 06:51:39;;;;;;;14.65;3.30;;;8.70;70.50;;;;;;5045513;28;20063;-50
2024/01/23 06:54:07;;;;;;;10.18;3.45;;;8.90;70.70;;;;;;5047700;28;20531;-51
2024/01/23 06:56:35;;;;;;;10.35;3.03;;;8.70;70.70;;;;;;5047526;28;20156;-50
2024/01/23 06:59:13;;;;;;;10.20;3.60;;;8.70;70.70;;;;;;5045991;28;20495;-46
2024/01/23 07:01:44;;;;;;;11.48;3.13;;;8.60;70.70;;;;;;5044185;28;20447;-51
2024/01/23 07:04:11;;;;;;;11.23;3.75;;;8.60;70.70;;;;;;5043360;28;20041;-47
2024/01/23 07:06:42;;;;;;;18.45;4.28;;;8.60;70.80;;;;;;5047145;28;20041;-49
2024/01/23 07:09:11;;;;;;;11.50;3.07;;;8.60;71.00;;;;;;5046068;28;20037;-51
2024/01/23 07:11:41;;;;;;;8.45;3.20;;;8.60;71.00;;;;;;5048340;28;20079;-47
2024/01/23 07:14:10;;;;;;;10.02;3.40;;;8.60;71.00;;;;;;5051507;28;20124;-50
2024/01/23 07:16:39;;;;;;;11.65;3.55;;;8.60;71.00;;;;;;5051114;28;20032;-51
2024/01/23 07:19:06;;;;;;;8.65;2.60;;;8.50;71.00;;;;;;5047798;28;20099;-50
2024/01/23 07:21:33;;;;;;;9.50;2.78;;;8.50;71.00;;;;;;5050823;28;20049;-50
2024/01/23 07:24:03;;;;;;;14.00;3.92;;;8.50;71.10;;;;;;5053332;28;20053;-47
2024/01/23 07:26:32;;;;;;;16.02;4.00;;;8.50;71.10;;;;;;5052452;28;20044;-50
2024/01/23 07:28:59;;;;;;;8.38;2.97;;;8.50;71.20;;;;;;5051116;28;20483;-50
2024/01/23 07:31:37;;;;;;;8.50;3.08;;;8.50;71.20;;;;;;5049846;28;20491;-51
2024/01/23 07:34:10;;;;;;;12.73;3.85;;;8.50;71.30;;;;;;5055944;28;20037;-51
2024/01/23 07:36:41;;;;;;;12.95;3.85;;;8.50;71.40;;;;;;5056868;28;20037;-51
2024/01/23 07:39:07;;;;;;;11.00;3.70;;;8.40;71.40;;;;;;5060936;28;20068;-51
2024/01/23 07:41:34;;;;;;;11.20;3.88;;;8.40;71.40;;;;;;5060730;28;20052;-51
2024/01/23 07:44:03;;;;;;;10.48;3.00;;;8.40;71.50;;;;;;5062534;28;20662;-49
2024/01/23 07:46:32;;;;;;;13.30;3.65;;;8.40;71.50;;;;;;5058377;28;20051;-48
2024/01/23 07:48:59;;;;;;;12.52;3.17;;;8.40;71.60;;;;;;5058886;28;20132;-51
2024/01/23 07:51:27;;;;;;;16.77;4.15;;;8.40;71.70;;;;;;5059558;28;20063;-50
2024/01/23 07:53:54;;;;;;;10.13;3.08;;;8.40;71.70;;;;;;5060670;28;20119;-46
2024/01/23 07:56:23;;;;;;;11.93;3.67;;;8.40;72.40;;;;;;5061677;28;20044;-50
2024/01/23 07:58:51;;;;;;;12.23;3.88;;;8.40;71.90;;;;;;5061284;28;20041;-50
2024/01/23 08:01:18;;;;;;;12.35;3.45;;;8.40;71.90;;;;;;5059853;28;20033;-50
2024/01/23 08:03:44;;;;;;;8.60;3.38;;;8.40;71.90;;;;;;5061117;28;20041;-51
2024/01/23 08:06:14;;;;;;;12.07;3.88;;;8.40;71.90;;;;;;5063171;28;20076;-47
2024/01/23 08:08:44;;;;;;;9.98;3.60;;;8.40;71.90;;;;;;5054066;28;20141;-47
2024/01/23 08:11:14;;;;;;;11.63;4.40;;;8.40;71.90;;;;;;5051298;28;20045;-46
2024/01/23 08:13:43;;;;;;;15.00;4.30;;;8.40;71.90;;;;;;5049751;28;20052;-49
2024/01/23 08:16:13;;;;;;;16.35;3.97;;;8.40;72.00;;;;;;5047448;28;20617;-47
2024/01/23 08:18:48;;;;;;;12.70;3.45;;;8.40;72.00;;;;;;5049297;28;20102;-47
2024/01/23 08:21:17;;;;;;;12.25;4.22;;;8.40;72.00;;;;;;5046766;28;20045;-46
2024/01/23 08:23:44;;;;;;;11.25;3.83;;;8.40;72.10;;;;;;5051796;28;20153;-50
2024/01/23 08:26:15;;;;;;;13.10;3.50;;;8.40;72.10;;;;;;5045756;28;20041;-51
2024/01/23 08:28:50;;;;;;;12.55;4.20;;;8.40;72.20;;;;;;5052346;28;20407;-51
2024/01/23 08:31:17;;;;;;;14.38;3.88;;;8.40;72.20;;;;;;5048695;28;20507;-46
2024/01/23 08:33:50;;;;;;;12.60;3.50;;;8.40;72.20;;;;;;5045973;28;20044;-51
2024/01/23 08:36:19;;;;;;;10.55;3.08;;;8.50;72.30;;;;;;5048665;28;20418;-46
2024/01/23 08:38:46;;;;;;;12.48;3.20;;;8.50;72.30;;;;;;5046931;28;20517;-48
2024/01/23 08:41:19;;;;;;;15.73;4.40;;;8.50;72.40;;;;;;5049279;28;20045;-49
2024/01/23 08:43:45;;;;;;;11.63;3.63;;;8.50;72.40;;;;;;5049023;28;20126;-47
2024/01/23 08:46:18;;;;;;;16.15;4.05;;;8.50;72.40;;;;;;5044210;28;20451;-51
2024/01/23 08:48:51;;;;;;;15.23;4.63;;;8.50;72.40;;;;;;5043518;28;20051;-46
2024/01/23 08:51:18;;;;;;;14.98;4.15;;;8.50;72.40;;;;;;5051228;28;20056;-48
2024/01/23 08:53:48;;;;;;;16.15;4.18;;;8.50;72.50;;;;;;5051577;28;20041;-47
2024/01/23 08:56:20;;;;;;;14.40;4.35;;;8.60;72.50;;;;;;5046640;28;20467;-48
2024/01/23 08:58:55;;;;;;;19.45;4.88;;;8.60;72.60;;;;;;5046369;28;20044;-50
2024/01/23 09:01:24;;;;;;;12.85;4.60;;;8.60;72.60;;;;;;5048873;28;20099;-49
2024/01/23 09:03:51;;;;;;;11.77;4.10;;;8.60;72.60;;;;;;5051229;28;20454;-46
2024/01/23 09:06:18;;;;;;;12.15;4.13;;;8.70;72.60;;;;;;5048767;28;20041;-47
2024/01/23 09:08:45;;;;;;;11.98;3.92;;;8.70;72.60;;;;;;5048599;28;20045;-47
2024/01/23 09:11:12;;;;;;;24.00;4.75;;;8.70;72.60;;;;;;5047603;28;20114;-49
2024/01/23 09:13:39;;;;;;;12.32;3.92;;;8.80;72.70;;;;;;5050561;28;20072;-47
2024/01/23 09:16:06;;;;;;;10.18;3.88;;;8.80;72.70;;;;;;5050918;28;20125;-48
2024/01/23 09:18:40;;;;;;;17.30;5.47;;;8.80;72.70;;;;;;5048657;28;20060;-47
2024/01/23 09:21:12;;;;;;;13.43;4.68;;;8.80;72.60;;;;;;5049733;28;20589;-51
2024/01/23 09:23:41;;;;;;;12.10;4.22;;;8.90;72.70;;;;;;5046844;28;20044;-46
2024/01/23 09:26:12;;;;;;;13.70;4.45;;;8.90;72.60;;;;;;5049965;28;20056;-47
2024/01/23 09:28:39;;;;;;;17.10;5.03;;;8.90;72.60;;;;;;5051020;28;20139;-51
2024/01/23 09:31:06;;;;;;;16.42;4.88;;;9.00;72.70;;;;;;5046980;28;20112;-47
2024/01/23 09:33:32;;;;;;;19.65;4.63;;;9.00;72.70;;;;;;5049809;28;20045;-51
2024/01/23 09:35:59;;;;;;;14.40;4.68;;;9.10;72.70;;;;;;5046282;28;20061;-51
2024/01/23 09:38:27;;;;;;;25.20;4.78;;;9.10;72.60;;;;;;5047984;28;20450;-49
2024/01/23 09:40:54;;;;;;;15.88;4.30;;;9.10;72.60;;;;;;5049341;28;20137;-51
2024/01/23 09:43:26;;;;;;;16.38;5.00;;;9.10;72.60;;;;;;5050508;28;20033;-49
2024/01/23 09:45:56;;;;;;;14.57;4.43;;;9.20;72.60;;;;;;5050193;28;20699;-48
2024/01/23 09:48:27;;;;;;;16.25;4.97;;;9.20;73.10;;;;;;5048292;28;20040;-49
2024/01/23 09:50:56;;;;;;;15.93;5.13;;;9.20;72.40;;;;;;5048947;28;20065;-47
2024/01/23 09:53:29;;;;;;;13.73;4.07;;;9.30;72.50;;;;;;5050424;28;20052;-51
2024/01/23 09:56:01;;;;;;;19.77;4.75;;;9.30;72.40;;;;;;5045936;28;20056;-47
2024/01/23 09:58:28;;;;;;;14.50;4.30;;;9.30;72.40;;;;;;5050549;28;20045;-48
2024/01/23 10:00:58;;;;;;;11.27;3.85;;;9.40;72.50;;;;;;5044007;28;20041;-51
2024/01/23 10:03:26;;;;;;;16.35;4.47;;;9.40;72.50;;;;;;5046992;28;20040;-50
2024/01/23 10:05:53;;;;;;;18.67;5.90;;;9.50;72.50;;;;;;5053777;28;20207;-48
2024/01/23 10:08:25;;;;;;;18.30;4.47;;;9.50;72.40;;;;;;5048578;28;20041;-47
2024/01/23 10:10:59;;;;;;;12.52;4.03;;;9.60;72.30;;;;;;5048431;28;20045;-50
2024/01/23 10:13:27;;;;;;;12.85;4.22;;;9.60;72.20;;;;;;5048629;28;20114;-50
2024/01/23 10:15:57;;;;;;;17.98;4.60;;;9.70;72.10;;;;;;5049990;28;20080;-50
2024/01/23 10:18:27;;;;;;;12.90;4.35;;;9.70;72.00;;;;;;5040848;28;20048;-47
2024/01/23 10:20:56;;;;;;;13.93;4.55;;;9.80;71.90;;;;;;5049386;28;20051;-47
2024/01/23 10:23:23;;;;;;;11.02;4.40;;;9.80;71.70;;;;;;5050285;28;20525;-47
2024/01/23 10:25:50;;;;;;;15.23;4.63;;;9.90;72.30;;;;;;5046869;28;20041;-48
2024/01/23 10:28:17;;;;;;;16.35;5.15;;;9.90;71.50;;;;;;5048291;28;20075;-48
2024/01/23 10:30:45;;;;;;;16.35;5.22;;;10.00;71.50;;;;;;5045313;28;20076;-46
2024/01/23 10:33:12;;;;;;;14.35;4.45;;;10.00;71.30;;;;;;5047975;28;20045;-47
2024/01/23 10:35:41;;;;;;;14.35;4.45;;;10.00;71.20;;;;;;5046914;28;20073;-49
2024/01/23 10:38:14;;;;;;;19.05;5.05;;;10.10;70.90;;;;;;5048120;28;20051;-48
2024/01/23 10:40:41;;;;;;;16.90;4.53;;;10.10;70.60;;;;;;5047772;28;20041;-49
2024/01/23 10:43:11;;;;;;;15.52;4.68;;;10.20;70.70;;;;;;5048285;28;20575;-49
2024/01/23 10:45:39;;;;;;;13.23;3.92;;;10.20;70.60;;;;;;5042417;28;20077;-49
2024/01/23 10:48:07;;;;;;;15.50;3.70;;;10.20;70.70;;;;;;5046390;28;20119;-50
2024/01/23 10:50:37;;;;;;;17.67;5.43;;;10.30;70.60;;;;;;5053910;28;20057;-48
2024/01/23 10:53:10;;;;;;;16.20;4.78;;;10.30;70.40;;;;;;5049292;28;20120;-46
2024/01/23 10:55:39;;;;;;;13.88;4.13;;;10.40;70.20;;;;;;5049212;28;20083;-48
2024/01/23 10:58:17;;;;;;;13.88;4.50;;;10.40;70.30;;;;;;5052979;28;20124;-50
2024/01/23 11:00:46;;;;;;;19.08;4.70;;;10.50;70.30;;;;;;5057361;28;20136;-47
2024/01/23 11:03:16;;;;;;;18.00;4.78;;;10.50;70.30;;;;;;5046101;28;20680;-50
2024/01/23 11:05:53;;;;;;;13.13;3.78;;;10.60;70.20;;;;;;5051486;28;20047;-46
2024/01/23 11:08:27;;;;;;;17.00;4.75;;;10.70;69.90;;;;;;5047465;28;20427;-48
2024/01/23 11:11:04;;;;;;;15.50;4.63;;;10.80;69.90;;;;;;5049874;28;20391;-50
2024/01/23 11:13:42;;;;;;;16.08;3.90;;;10.80;69.50;;;;;;5052729;28;20048;-49
2024/01/23 11:16:09;;;;;;;14.60;4.82;;;10.90;69.50;;;;;;5052199;28;20701;-48
2024/01/23 11:18:36;;;;;;;13.75;4.43;;;11.00;69.40;;;;;;5049246;28;20037;-50
2024/01/23 11:21:09;;;;;;;17.05;5.30;;;11.00;69.20;;;;;;5052041;28;20503;-48
2024/01/23 11:23:41;;;;;;;18.58;6.38;;;11.10;69.00;;;;;;5053456;28;20116;-51
2024/01/23 11:26:16;;;;;;;12.52;4.07;;;11.20;68.90;;;;;;5051397;28;20048;-47
2024/01/23 11:28:52;;;;;;;15.23;4.32;;;11.20;69.00;;;;;;5053149;28;20045;-47
2024/01/23 11:31:23;;;;;;;12.32;4.53;;;11.30;68.60;;;;;;5043280;28;20103;-50
2024/01/23 11:33:52;;;;;;;21.00;4.72;;;11.30;68.20;;;;;;5050132;28;20111;-51
2024/01/23 11:36:27;;;;;;;11.57;3.42;;;11.40;68.20;;;;;;5053083;28;20084;-49
2024/01/23 11:38:57;;;;;;;19.58;5.13;;;11.40;67.80;;;;;;5051880;28;20414;-50
2024/01/23 11:41:27;;;;;;;16.92;4.45;;;11.40;68.00;;;;;;5049680;28;20056;-47
2024/01/23 11:44:03;;;;;;;15.70;4.47;;;11.50;68.00;;;;;;5049734;28;20515;-47
2024/01/23 11:46:35;;;;;;;11.40;4.60;;;11.50;67.90;;;;;;5053063;28;20048;-51
2024/01/23 11:49:02;;;;;;;16.40;4.80;;;11.50;68.00;;;;;;5052767;28;20045;-47
2024/01/23 11:51:34;;;;;;;18.35;5.43;;;11.60;68.20;;;;;;5048965;28;20063;-48
2024/01/23 11:54:07;;;;;;;13.98;4.57;;;11.70;67.90;;;;;;5070835;22;20047;-56
2024/01/23 11:56:35;;;;;;;17.63;4.45;;;11.70;67.80;;;;;;5067061;28;20059;-54
2024/01/23 11:59:04;;;;;;;15.40;3.70;;;11.80;67.70;;;;;;5066903;28;20094;-54
2024/01/23 12:01:40;;;;;;;10.63;4.22;;;11.80;67.60;;;;;;5068572;28;20044;-54
2024/01/23 12:04:08;;;;;;;17.15;4.07;;;11.80;67.30;;;;;;5053927;28;20072;-54
2024/01/23 12:06:37;;;;;;;13.75;4.38;;;11.80;67.30;;;;;;5072343;28;20124;-57
2024/01/23 12:09:07;;;;;;;12.32;4.18;;;11.90;67.40;;;;;;5070539;28;20122;-53
2024/01/23 12:11:36;;;;;;;17.10;5.13;;;11.90;67.60;;;;;;5064654;28;20083;-55
2024/01/23 12:14:02;;;;;;;15.55;5.32;;;11.90;67.80;;;;;;5052360;28;20044;-55
2024/01/23 12:16:29;;;;;;;16.13;5.57;;;11.90;67.90;;;;;;5064849;28;20047;-55
2024/01/23 12:18:56;;;;;;;20.30;5.18;;;11.90;67.90;;;;;;5071027;28;20033;-55
2024/01/23 12:21:27;;;;;;;16.35;5.10;;;12.00;68.00;;;;;;5071749;28;20098;-55
2024/01/23 12:23:57;;;;;;;18.50;4.63;;;12.00;68.10;;;;;;5068667;28;20067;-56
2024/01/23 12:26:41;;;;;;;15.02;5.30;;;12.10;68.10;;;;;;5068577;28;20044;-57
2024/01/23 12:29:09;;;;;;;14.52;4.47;;;12.10;68.00;;;;;;5069859;28;20516;-57
2024/01/23 12:31:43;;;;;;;16.55;5.35;;;12.10;68.00;;;;;;5067495;28;20839;-56
2024/01/23 12:34:13;;;;;;;20.80;5.32;;;12.20;67.90;;;;;;5066563;28;20351;-57
2024/01/23 12:36:40;;;;;;;17.67;4.53;;;12.20;68.50;;;;;;5065585;28;20512;-58
2024/01/23 12:39:11;;;;;;;17.17;5.60;;;12.20;67.70;;;;;;5067622;28;20036;-57
2024/01/23 12:41:40;;;;;;;17.15;5.18;;;12.30;67.40;;;;;;5048656;28;20044;-57
2024/01/23 12:44:13;;;;;;;18.17;5.57;;;12.20;67.40;;;;;;5068901;28;20152;-56
2024/01/23 12:46:45;;;;;;;18.58;5.32;;;12.20;67.50;;;;;;5069957;28;20796;-57
2024/01/23 12:49:18;;;;;;;15.55;4.65;;;12.20;67.50;;;;;;5064919;28;20044;-58
2024/01/23 12:51:51;;;;;;;24.33;6.03;;;12.20;67.70;;;;;;5061434;28;20680;-57